createdAt,value
2022-11-21T00:00:43.002Z,5.13
2022-11-21T00:05:49.616Z,7.57
2022-11-21T00:10:54.770Z,6.20
2022-11-21T00:16:05.762Z,5.33
2022-11-21T00:21:13.659Z,5.83
2022-11-21T00:26:18.978Z,7.30
2022-11-21T00:31:26.340Z,5.87
2022-11-21T00:36:31.534Z,6.83
2022-11-21T00:41:36.726Z,5.40
2022-11-21T00:46:41.802Z,5.90
2022-11-21T00:51:47.113Z,4.23
2022-11-21T00:56:52.377Z,4.83
2022-11-21T01:01:57.602Z,5.63
2022-11-21T01:07:03.194Z,4.73
2022-11-21T01:12:08.509Z,3.70
2022-11-21T01:17:13.702Z,5.97
2022-11-21T01:22:18.839Z,6.10
2022-11-21T01:27:24.073Z,4.97
2022-11-21T01:32:29.285Z,7.10
2022-11-21T01:37:34.499Z,4.73
2022-11-21T01:42:54.040Z,4.40
2022-11-21T01:47:59.239Z,5.30
2022-11-21T01:53:04.826Z,4.53
2022-11-21T01:58:11.101Z,3.97
2022-11-21T02:03:19.390Z,4.90
2022-11-21T02:08:26.673Z,6.57
2022-11-21T02:13:33.141Z,4.97
2022-11-21T02:18:38.538Z,6.00
2022-11-21T02:23:49.570Z,6.90
2022-11-21T02:28:55.300Z,5.00
2022-11-21T02:34:00.454Z,6.57
2022-11-21T02:39:08.414Z,5.23
2022-11-21T02:44:19.230Z,6.60
2022-11-21T02:49:27.519Z,7.10
2022-11-21T02:54:32.828Z,5.00
2022-11-21T02:59:38.071Z,5.50
2022-11-21T03:04:43.264Z,6.40
2022-11-21T03:09:48.477Z,7.97
2022-11-21T03:14:53.783Z,7.03
2022-11-21T03:19:58.954Z,4.40
2022-11-21T03:25:04.366Z,6.10
2022-11-21T03:30:10.611Z,7.33
2022-11-21T03:35:16.019Z,6.17
2022-11-21T03:40:21.342Z,7.23
2022-11-21T03:45:26.609Z,5.77
2022-11-21T03:50:31.722Z,2.80
2022-11-21T03:55:36.874Z,6.63
2022-11-21T04:00:41.992Z,5.97
2022-11-21T04:05:47.196Z,7.43
2022-11-21T04:10:53.908Z,6.53
2022-11-21T04:15:59.596Z,5.37
2022-11-21T04:21:08.696Z,5.67
2022-11-21T04:26:13.900Z,4.50
2022-11-21T04:31:19.102Z,6.27
2022-11-21T04:36:24.215Z,8.27
2022-11-21T04:41:29.407Z,5.43
2022-11-21T04:46:34.529Z,7.47
2022-11-21T04:51:39.682Z,6.83
2022-11-21T04:57:06.228Z,7.23
2022-11-21T05:02:11.859Z,7.53
2022-11-21T05:07:18.275Z,7.67
2022-11-21T05:12:41.583Z,8.33
2022-11-21T05:17:46.811Z,7.00
2022-11-21T05:22:55.208Z,7.17
2022-11-21T05:28:00.433Z,6.63
2022-11-21T05:33:07.464Z,7.73
2022-11-21T05:38:13.322Z,8.33
2022-11-21T05:43:36.452Z,6.13
2022-11-21T05:48:41.791Z,5.67
2022-11-21T05:53:47.759Z,8.63
2022-11-21T05:58:54.650Z,7.10
2022-11-21T06:04:01.671Z,6.90
2022-11-21T06:09:07.055Z,8.23
2022-11-21T06:14:12.276Z,6.93
2022-11-21T06:19:17.609Z,9.50
2022-11-21T06:24:22.704Z,7.53
2022-11-21T06:29:28.182Z,9.33
2022-11-21T06:34:33.897Z,8.83
2022-11-21T06:39:39.109Z,11.80
2022-11-21T06:44:44.332Z,7.00
2022-11-21T06:49:49.590Z,8.83
2022-11-21T06:54:54.765Z,9.00
2022-11-21T06:59:59.863Z,9.20
2022-11-21T07:05:05.145Z,8.63
2022-11-21T07:10:10.997Z,8.00
2022-11-21T07:15:16.182Z,8.43
2022-11-21T07:20:21.268Z,9.60
2022-11-21T07:25:26.452Z,7.77
2022-11-21T07:30:31.749Z,8.07
2022-11-21T07:35:37.569Z,13.53
2022-11-21T07:40:42.984Z,6.80
2022-11-21T07:45:48.263Z,12.30
2022-11-21T07:50:53.472Z,12.70
2022-11-21T07:56:00.389Z,8.23
2022-11-21T08:01:19.088Z,5.67
2022-11-21T08:06:26.391Z,7.37
2022-11-21T08:11:32.772Z,8.57
2022-11-21T08:16:38.144Z,9.83
2022-11-21T08:21:43.356Z,7.53
2022-11-21T08:26:48.752Z,19.83
2022-11-21T08:31:53.852Z,10.80
2022-11-21T08:37:00.195Z,6.60
2022-11-21T08:42:05.531Z,8.13
2022-11-21T08:47:10.702Z,6.17
2022-11-21T08:52:17.701Z,7.77
2022-11-21T08:57:23.058Z,10.17
2022-11-21T09:02:28.290Z,10.57
2022-11-21T09:07:35.856Z,10.47
2022-11-21T09:12:41.256Z,7.93
2022-11-21T09:18:04.979Z,8.20
2022-11-21T09:23:13.001Z,12.83
2022-11-21T09:28:18.292Z,12.63
2022-11-21T09:33:23.664Z,16.20
2022-11-21T09:38:31.319Z,8.13
2022-11-21T09:43:53.069Z,8.87
2022-11-21T09:48:58.561Z,12.37
2022-11-21T09:54:13.317Z,8.07
2022-11-21T09:59:36.348Z,10.53
2022-11-21T10:04:41.789Z,11.53
2022-11-21T10:10:11.026Z,13.07
2022-11-21T10:15:25.441Z,8.77
2022-11-21T10:20:50.209Z,18.70
2022-11-21T10:25:57.996Z,11.50
2022-11-21T10:31:05.756Z,10.97
2022-11-21T10:36:16.740Z,9.47
2022-11-21T10:41:33.930Z,8.60
2022-11-21T10:46:39.245Z,7.23
2022-11-21T10:51:53.262Z,8.87
2022-11-21T10:57:10.066Z,8.60
2022-11-21T11:02:18.303Z,9.80
2022-11-21T11:07:29.553Z,10.50
2022-11-21T11:12:52.796Z,8.30
2022-11-21T11:18:09.563Z,8.37
2022-11-21T11:23:28.115Z,9.33
2022-11-21T11:28:38.062Z,9.00
2022-11-21T11:33:52.026Z,7.63
2022-11-21T11:39:00.819Z,8.33
2022-11-21T11:44:27.291Z,10.60
2022-11-21T11:50:03.483Z,12.23
2022-11-21T11:55:13.065Z,11.43
2022-11-21T12:00:42.340Z,11.33
2022-11-21T12:05:59.276Z,11.67
2022-11-21T12:11:43.783Z,6.10
2022-11-21T12:16:49.002Z,8.63
2022-11-21T12:21:54.939Z,10.57
2022-11-21T12:27:27.256Z,10.67
2022-11-21T12:32:50.731Z,10.37
2022-11-21T12:38:00.415Z,10.70
2022-11-21T12:43:37.576Z,30.97
2022-11-21T12:49:23.106Z,11.80
2022-11-21T12:54:31.390Z,18.87
2022-11-21T13:00:06.868Z,8.97
2022-11-21T13:05:15.051Z,8.13
2022-11-21T13:10:20.551Z,10.90
2022-11-21T13:15:31.807Z,10.13
2022-11-21T13:20:44.276Z,11.20
2022-11-21T13:25:49.634Z,16.50
2022-11-21T13:30:56.503Z,14.50
2022-11-21T13:36:04.843Z,11.43
2022-11-21T13:41:28.276Z,12.03
2022-11-21T13:47:02.756Z,13.37
2022-11-21T13:52:32.475Z,14.27
2022-11-21T13:58:04.457Z,11.93
2022-11-21T14:03:36.828Z,10.27
2022-11-21T14:08:48.072Z,10.03
2022-11-21T14:13:53.870Z,11.43
2022-11-21T14:19:01.071Z,13.87
2022-11-21T14:24:20.428Z,11.20
2022-11-21T14:29:42.453Z,11.90
2022-11-21T14:34:48.075Z,13.80
2022-11-21T14:39:57.275Z,12.43
2022-11-21T14:45:19.871Z,12.70
2022-11-21T14:50:30.521Z,10.63
2022-11-21T14:55:55.664Z,15.17
2022-11-21T15:01:29.968Z,14.50
2022-11-21T15:07:01.960Z,10.73
2022-11-21T15:12:49.304Z,11.93
2022-11-21T15:23:37.750Z,11.73
2022-11-21T15:28:47.419Z,11.47
2022-11-21T15:39:10.111Z,13.23
2022-11-21T15:44:18.646Z,15.90
2022-11-21T15:49:32.791Z,15.47
2022-11-21T15:54:32.595Z,18.47
2022-11-21T15:59:38.767Z,14.33
2022-11-21T16:04:44.290Z,13.17
2022-11-21T16:09:50.367Z,16.20
2022-11-21T16:14:55.714Z,13.73
2022-11-21T16:20:01.035Z,16.23
2022-11-21T16:25:06.965Z,13.20
2022-11-21T16:30:13.033Z,17.60
2022-11-21T16:35:18.427Z,16.93
2022-11-21T16:40:23.729Z,17.57
2022-11-21T16:45:30.333Z,18.03
2022-11-21T16:50:35.596Z,16.63
2022-11-21T16:55:42.367Z,13.40
2022-11-21T17:00:47.656Z,12.70
2022-11-21T17:06:00.764Z,13.13
2022-11-21T17:11:23.473Z,13.83
2022-11-21T17:16:29.487Z,15.47
2022-11-21T17:21:35.284Z,15.73
2022-11-21T17:26:40.599Z,17.63
2022-11-21T17:31:47.020Z,13.97
2022-11-21T17:36:52.812Z,16.50
2022-11-21T17:42:00.348Z,17.50
2022-11-21T17:47:05.783Z,20.27
2022-11-21T17:52:10.981Z,18.43
2022-11-21T17:57:16.317Z,20.10
2022-11-21T18:02:22.792Z,21.50
2022-11-21T18:07:30.818Z,17.80
2022-11-21T18:12:36.491Z,14.87
2022-11-21T18:17:41.901Z,18.90
2022-11-21T18:22:48.863Z,20.23
2022-11-21T18:27:54.816Z,23.37
2022-11-21T18:33:00.943Z,18.67
2022-11-21T18:38:06.439Z,19.83
2022-11-21T18:43:12.974Z,23.10
2022-11-21T18:48:18.358Z,24.37
2022-11-21T18:53:25.203Z,52.00
2022-11-21T18:58:35.029Z,19.87
2022-11-21T19:03:44.740Z,22.13
2022-11-21T19:08:55.147Z,18.20
2022-11-21T19:14:06.513Z,19.47
2022-11-21T19:24:24.198Z,23.53
2022-11-21T19:29:30.488Z,14.87
2022-11-21T19:34:36.226Z,16.03
2022-11-21T19:39:41.833Z,14.37
2022-11-21T19:44:50.066Z,17.27
2022-11-21T19:49:56.474Z,20.80
2022-11-21T19:55:02.028Z,20.70
2022-11-21T20:00:08.364Z,17.87
2022-11-21T20:05:15.342Z,20.13
2022-11-21T20:10:21.001Z,21.97
2022-11-21T20:15:31.392Z,19.03
2022-11-21T20:20:38.735Z,15.70
2022-11-21T20:25:45.613Z,23.40
2022-11-21T20:30:52.546Z,22.83
2022-11-21T20:36:01.453Z,14.13
2022-11-21T20:41:09.013Z,15.57
2022-11-21T20:46:20.130Z,16.20
2022-11-21T20:56:54.095Z,16.37
2022-11-21T21:01:59.621Z,20.83
2022-11-21T21:07:05.273Z,21.83
2022-11-21T21:12:10.788Z,17.53
2022-11-21T21:17:19.719Z,17.73
2022-11-21T21:22:26.566Z,21.00
2022-11-21T21:27:33.524Z,17.77
2022-11-21T21:32:39.972Z,18.03
2022-11-21T21:37:50.212Z,19.47
2022-11-21T21:42:57.922Z,18.50
2022-11-21T21:48:08.105Z,15.83
2022-11-21T21:53:15.226Z,17.37
2022-11-21T21:58:21.255Z,17.83
2022-11-21T22:03:30.216Z,20.50
2022-11-21T22:08:39.537Z,15.27
2022-11-21T22:13:50.876Z,17.20
2022-11-21T22:18:59.579Z,17.63
2022-11-21T22:24:26.996Z,25.43
2022-11-21T22:29:26.555Z,19.03
2022-11-21T22:34:33.524Z,17.30
2022-11-21T22:39:43.835Z,20.80
2022-11-21T22:44:52.894Z,18.97
2022-11-21T22:49:59.438Z,15.73
2022-11-21T22:55:05.947Z,16.63
2022-11-21T23:00:14.716Z,17.40
2022-11-21T23:05:22.089Z,19.00
2022-11-21T23:10:31.631Z,17.73
2022-11-21T23:15:41.281Z,17.63
2022-11-21T23:20:49.311Z,16.50
2022-11-21T23:25:56.852Z,15.83
2022-11-21T23:31:07.484Z,19.50
2022-11-21T23:36:12.800Z,17.50
2022-11-21T23:41:21.825Z,14.73
2022-11-21T23:46:29.275Z,20.43
2022-11-21T23:51:38.332Z,20.87
2022-11-21T23:56:53.075Z,19.10
